Time;durP1;ratioP1;P1;durP2;ratioP2;P2;SDS_P1;SDS_P2;PMS_P1;PMS_P2;Temp;Humidity;BMP_temperature;BMP_pressure;BME280_temperature;BME280_humidity;BME280_pressure;Samples;Min_cycle;Max_cycle;Signal;HPM_P1;HPM_P2
2023/02/20 00:01:16;;;;;;;31.25;23.50;;;12.50;90.50;;;;;;6307293;22;20041;-75
2023/02/20 00:03:43;;;;;;;31.98;23.42;;;12.50;90.50;;;;;;6307504;22;20065;-74
2023/02/20 00:06:09;;;;;;;28.98;21.80;;;12.60;90.60;;;;;;6307668;22;20006;-76
2023/02/20 00:08:35;;;;;;;32.72;23.02;;;12.60;90.50;;;;;;6307435;22;20341;-76
2023/02/20 00:11:01;;;;;;;32.70;22.17;;;12.60;90.50;;;;;;6307512;22;20438;-77
2023/02/20 00:13:27;;;;;;;32.92;22.55;;;12.60;90.60;;;;;;6307723;22;19995;-77
2023/02/20 00:15:52;;;;;;;29.83;23.23;;;12.60;90.60;;;;;;6307455;22;20006;-75
2023/02/20 00:18:18;;;;;;;30.90;22.98;;;12.70;90.60;;;;;;6307455;22;19995;-74
2023/02/20 00:20:44;;;;;;;29.60;21.77;;;12.70;90.60;;;;;;6307409;22;19999;-75
2023/02/20 00:23:10;;;;;;;29.83;21.20;;;12.80;90.50;;;;;;6307443;22;20513;-75
2023/02/20 00:25:35;;;;;;;29.92;21.65;;;12.90;90.50;;;;;;6279780;22;20084;-76
2023/02/20 00:28:01;;;;;;;30.77;21.30;;;12.90;90.40;;;;;;6307320;22;20368;-76
2023/02/20 00:30:27;;;;;;;29.33;22.00;;;13.00;90.40;;;;;;6307290;22;20074;-76
2023/02/20 00:32:54;;;;;;;26.85;21.27;;;13.00;90.40;;;;;;6307027;22;20494;-78
2023/02/20 00:35:21;;;;;;;29.00;22.20;;;13.00;90.30;;;;;;6307323;22;20007;-77
2023/02/20 00:37:48;;;;;;;29.25;22.77;;;13.00;90.30;;;;;;6307294;22;20070;-76
2023/02/20 00:40:15;;;;;;;29.65;21.58;;;13.00;90.30;;;;;;6307529;22;20006;-75
2023/02/20 00:42:41;;;;;;;36.60;23.13;;;13.00;90.30;;;;;;6307241;22;19999;-76
2023/02/20 00:45:08;;;;;;;29.30;21.90;;;13.00;90.30;;;;;;6307640;22;19999;-75
2023/02/20 00:47:34;;;;;;;29.10;21.25;;;13.00;90.30;;;;;;6280045;22;20006;-76
2023/02/20 00:50:00;;;;;;;27.88;20.95;;;13.00;90.30;;;;;;6307337;22;20019;-75
2023/02/20 00:52:25;;;;;;;32.15;21.65;;;13.00;90.30;;;;;;6306944;22;19999;-76
2023/02/20 00:54:51;;;;;;;29.10;22.17;;;13.10;90.30;;;;;;6306896;22;20444;-76
2023/02/20 00:57:17;;;;;;;33.65;20.75;;;13.00;90.10;;;;;;6306884;22;20003;-75
2023/02/20 00:59:43;;;;;;;35.65;21.65;;;13.00;90.10;;;;;;6307075;22;20076;-76
2023/02/20 01:02:09;;;;;;;33.22;21.08;;;13.10;90.30;;;;;;6306830;22;20356;-75
2023/02/20 01:04:34;;;;;;;29.90;20.25;;;13.10;90.10;;;;;;6307062;22;20026;-75
2023/02/20 01:07:00;;;;;;;32.72;20.17;;;13.10;90.00;;;;;;6307076;22;20094;-75
2023/02/20 01:09:27;;;;;;;27.35;19.70;;;13.10;90.00;;;;;;6306622;22;20014;-77
2023/02/20 01:11:53;;;;;;;25.55;20.52;;;13.00;90.10;;;;;;6306926;22;20006;-76
2023/02/20 01:14:19;;;;;;;30.92;21.13;;;13.00;90.10;;;;;;6279602;22;20011;-76
2023/02/20 01:16:46;;;;;;;30.52;20.77;;;13.00;90.10;;;;;;6307070;22;20000;-76
2023/02/20 01:19:12;;;;;;;32.33;20.67;;;12.90;90.10;;;;;;6306974;22;20074;-74
2023/02/20 01:21:38;;;;;;;32.90;21.50;;;12.90;90.20;;;;;;6306694;22;20026;-75
2023/02/20 01:24:04;;;;;;;31.23;20.33;;;12.80;90.20;;;;;;6306613;22;20333;-76
2023/02/20 01:26:30;;;;;;;29.20;21.67;;;12.80;90.30;;;;;;6306691;22;20003;-75
2023/02/20 01:28:55;;;;;;;32.03;22.05;;;12.70;90.30;;;;;;6306628;22;20385;-75
2023/02/20 01:31:21;;;;;;;28.00;21.25;;;12.70;90.50;;;;;;6306578;22;20010;-75
2023/02/20 01:33:47;;;;;;;28.80;21.13;;;12.70;90.40;;;;;;6306362;22;20376;-75
2023/02/20 01:36:13;;;;;;;27.05;20.67;;;12.70;90.50;;;;;;6306844;22;20004;-76
2023/02/20 01:38:40;;;;;;;30.63;21.50;;;12.60;90.40;;;;;;6306641;22;20003;-75
2023/02/20 01:41:09;;;;;;;32.55;21.67;;;12.60;90.50;;;;;;6307215;22;20437;-76
2023/02/20 01:43:35;;;;;;;31.30;22.00;;;12.60;90.40;;;;;;6307131;22;20000;-76
2023/02/20 01:46:25;;;;;;;28.40;21.25;;;12.60;90.60;;;;;;6306503;22;20006;-77
2023/02/20 01:48:58;;;;;;;30.05;21.80;;;12.50;90.50;;;;;;6306414;22;20003;-77
2023/02/20 01:51:24;;;;;;;32.08;21.88;;;12.60;90.50;;;;;;6306514;22;20444;-76
2023/02/20 01:53:50;;;;;;;29.65;20.23;;;12.50;90.60;;;;;;6306461;22;20421;-74
2023/02/20 01:56:15;;;;;;;30.83;20.65;;;12.50;90.50;;;;;;6306581;22;20003;-74
2023/02/20 01:58:47;;;;;;;29.00;20.77;;;12.50;90.70;;;;;;6306386;22;20063;-75
2023/02/20 02:01:13;;;;;;;29.17;22.27;;;12.50;90.60;;;;;;6306229;22;20003;-74
2023/02/20 02:03:42;;;;;;;27.42;20.25;;;12.40;90.60;;;;;;6278960;22;20449;-75
2023/02/20 02:06:10;;;;;;;35.17;22.85;;;12.40;90.60;;;;;;6306466;22;20003;-77
2023/02/20 02:08:38;;;;;;;29.95;21.50;;;12.40;90.80;;;;;;6306558;22;20027;-77
2023/02/20 02:11:14;;;;;;;30.33;23.30;;;12.40;90.70;;;;;;6304037;22;20000;-75
2023/02/20 02:13:42;;;;;;;31.15;22.70;;;12.40;90.90;;;;;;6306443;22;20076;-77
2023/02/20 02:16:25;;;;;;;33.55;21.88;;;12.30;90.80;;;;;;6306862;22;20489;-75
2023/02/20 02:19:22;;;;;;;32.20;23.90;;;12.30;91.00;;;;;;6306374;22;20311;-74
2023/02/20 02:22:09;;;;;;;31.75;22.92;;;12.30;90.90;;;;;;6307661;22;20456;-75
2023/02/20 02:25:13;;;;;;;30.85;23.70;;;12.30;90.90;;;;;;6308896;22;20006;-75
2023/02/20 02:28:05;;;;;;;30.75;22.95;;;12.20;90.90;;;;;;6308531;22;19999;-75
2023/02/20 02:30:42;;;;;;;30.05;22.95;;;12.20;90.90;;;;;;6308543;22;20440;-74
2023/02/20 02:33:34;;;;;;;34.70;23.05;;;12.20;90.90;;;;;;6307738;22;20064;-75
2023/02/20 02:36:02;;;;;;;32.00;23.50;;;12.20;90.90;;;;;;6290642;22;20086;-76
2023/02/20 02:38:43;;;;;;;32.45;24.15;;;12.20;90.90;;;;;;6308773;22;20005;-76
2023/02/20 02:41:15;;;;;;;36.75;24.63;;;12.20;91.10;;;;;;6311310;22;20137;-76
2023/02/20 02:44:07;;;;;;;33.65;24.35;;;12.10;91.00;;;;;;6321374;22;19999;-76
2023/02/20 02:47:05;;;;;;;31.75;22.63;;;12.10;91.10;;;;;;6307513;22;20012;-75
2023/02/20 02:49:42;;;;;;;32.35;23.35;;;12.00;91.10;;;;;;6308248;22;20014;-75
2023/02/20 02:52:09;;;;;;;32.33;21.65;;;11.90;91.10;;;;;;6280612;22;20007;-76
2023/02/20 02:54:35;;;;;;;34.25;21.90;;;11.90;91.30;;;;;;6307643;22;20069;-76
2023/02/20 02:57:19;;;;;;;28.65;21.67;;;11.90;91.30;;;;;;6308086;22;20417;-75
2023/02/20 02:59:48;;;;;;;36.53;21.58;;;11.80;91.10;;;;;;6307847;22;20007;-75
2023/02/20 03:02:16;;;;;;;28.75;21.02;;;11.70;91.10;;;;;;6308558;22;20037;-74
2023/02/20 03:04:46;;;;;;;26.27;20.35;;;11.70;91.20;;;;;;6307958;22;19995;-76
2023/02/20 03:07:15;;;;;;;26.90;20.45;;;11.60;91.00;;;;;;6308155;22;20070;-76
2023/02/20 03:10:01;;;;;;;23.15;19.98;;;11.60;91.00;;;;;;6307889;22;20007;-76
2023/02/20 03:12:28;;;;;;;29.40;20.40;;;11.50;91.10;;;;;;6308019;22;20095;-75
2023/02/20 03:18:21;;;;;;;28.65;20.48;;;11.40;91.00;;;;;;6308095;22;20399;-75
2023/02/20 03:20:51;;;;;;;28.48;20.70;;;11.30;90.90;;;;;;6307544;22;20018;-75
2023/02/20 03:23:39;;;;;;;27.20;20.45;;;11.40;91.10;;;;;;6307623;22;19999;-75
2023/02/20 03:26:16;;;;;;;26.90;21.65;;;11.30;91.00;;;;;;6307904;22;20368;-75
2023/02/20 03:28:54;;;;;;;30.02;21.80;;;11.20;91.10;;;;;;6307763;22;20003;-77
2023/02/20 03:43:24;;;;;;;30.33;22.60;;;11.20;91.20;;;;;;6307598;22;20062;-75
2023/02/20 03:46:01;;;;;;;31.52;23.73;;;11.20;91.30;;;;;;6307397;22;20463;-76
2023/02/20 03:48:38;;;;;;;29.67;23.30;;;11.20;91.30;;;;;;6307340;22;19995;-76
2023/02/20 03:53:49;;;;;;;29.60;24.63;;;11.10;91.00;;;;;;6307638;22;20089;-76
2023/02/20 03:56:22;;;;;;;29.08;23.38;;;11.10;91.00;;;;;;6307837;22;20035;-75
2023/02/20 03:58:57;;;;;;;31.02;25.48;;;11.00;91.20;;;;;;6280412;22;20015;-76
2023/02/20 04:01:25;;;;;;;33.88;24.90;;;11.00;91.20;;;;;;6280500;22;20007;-75
2023/02/20 04:03:53;;;;;;;31.92;25.55;;;11.00;91.20;;;;;;6309467;22;20007;-77
2023/02/20 04:06:22;;;;;;;32.22;24.77;;;11.00;91.20;;;;;;6327548;22;19999;-76
2023/02/20 04:09:08;;;;;;;30.98;24.95;;;11.00;91.20;;;;;;6314288;22;19996;-76
2023/02/20 04:11:44;;;;;;;32.30;26.45;;;11.00;91.30;;;;;;6307775;22;19999;-76
2023/02/20 04:14:12;;;;;;;34.30;25.77;;;10.90;91.00;;;;;;6307817;22;20008;-75
2023/02/20 04:16:44;;;;;;;31.58;25.83;;;10.90;91.40;;;;;;6307730;22;20436;-76
2023/02/20 04:19:10;;;;;;;31.52;26.50;;;10.90;91.40;;;;;;6307923;22;20324;-74
2023/02/20 04:21:53;;;;;;;33.20;27.45;;;10.90;91.30;;;;;;6307799;22;20409;-75
2023/02/20 04:24:30;;;;;;;34.22;27.92;;;10.90;91.20;;;;;;6307490;22;20075;-75
2023/02/20 04:26:56;;;;;;;37.22;28.15;;;10.90;91.70;;;;;;6307569;22;19999;-75
2023/02/20 04:29:22;;;;;;;35.88;28.20;;;10.90;91.60;;;;;;6307460;22;20065;-76
2023/02/20 04:31:48;;;;;;;39.75;29.73;;;10.90;91.70;;;;;;6279966;22;20011;-75
2023/02/20 04:34:14;;;;;;;36.10;28.90;;;10.90;91.70;;;;;;6307155;22;19999;-75
2023/02/20 04:36:39;;;;;;;38.53;29.38;;;10.90;91.70;;;;;;6307319;22;19996;-75
2023/02/20 04:39:05;;;;;;;38.13;29.88;;;10.90;92.00;;;;;;6307460;22;20007;-76
2023/02/20 04:41:31;;;;;;;39.38;30.23;;;10.80;91.80;;;;;;6307314;22;20487;-76
2023/02/20 04:46:40;;;;;;;;;;;10.70;91.60;;;;;;6307524;22;20014;-76
2023/02/20 04:49:06;;;;;;;41.08;29.00;;;10.70;92.00;;;;;;6307312;22;19938;-75
2023/02/20 04:51:32;;;;;;;32.58;26.55;;;10.60;92.00;;;;;;6307281;22;19999;-76
2023/02/20 04:53:57;;;;;;;37.15;26.42;;;10.50;92.10;;;;;;6307330;22;20003;-75
2023/02/20 04:56:23;;;;;;;39.90;27.58;;;10.50;92.20;;;;;;6307036;22;20089;-75
2023/02/20 04:58:49;;;;;;;37.50;28.10;;;10.40;92.10;;;;;;6306856;22;20003;-75
2023/02/20 05:01:15;;;;;;;34.83;26.05;;;10.30;92.30;;;;;;6307228;22;19995;-74
2023/02/20 05:03:41;;;;;;;34.33;26.48;;;10.30;92.20;;;;;;6279742;22;20345;-77
2023/02/20 05:06:06;;;;;;;32.63;25.70;;;10.30;92.20;;;;;;6307173;22;20052;-75
2023/02/20 05:08:32;;;;;;;31.48;26.05;;;10.30;92.30;;;;;;6307068;22;20003;-76
2023/02/20 05:10:58;;;;;;;36.70;26.85;;;10.30;92.20;;;;;;6306885;22;20003;-75
2023/02/20 05:13:23;;;;;;;36.97;26.13;;;10.20;92.10;;;;;;6307072;22;20075;-76
2023/02/20 05:15:49;;;;;;;37.60;26.52;;;10.20;92.10;;;;;;6307101;22;20010;-75
2023/02/20 05:18:27;;;;;;;55.83;27.95;;;10.10;92.10;;;;;;6279320;22;20011;-75
2023/02/20 05:23:37;;;;;;;44.08;29.40;;;10.00;91.70;;;;;;6307306;22;20029;-76
2023/02/20 05:26:11;;;;;;;42.25;30.35;;;10.00;92.40;;;;;;6307037;22;20075;-76
2023/02/20 05:28:38;;;;;;;;;;;10.00;91.80;;;;;;6307336;22;20003;-75
2023/02/20 05:31:05;;;;;;;49.33;30.00;;;10.00;93.00;;;;;;6324269;22;19899;-77
2023/02/20 05:33:30;;;;;;;90.05;30.90;;;10.10;92.70;;;;;;6285739;22;20359;-76
2023/02/20 05:35:56;;;;;;;48.13;31.45;;;10.10;92.40;;;;;;6307024;22;20000;-76
2023/02/20 05:38:22;;;;;;;48.63;30.65;;;10.10;92.40;;;;;;6307054;22;20010;-75
2023/02/20 05:40:47;;;;;;;67.75;32.63;;;10.20;92.30;;;;;;6306906;22;19999;-75
2023/02/20 05:43:15;;;;;;;51.97;32.88;;;10.20;92.70;;;;;;6306939;22;19995;-76
2023/02/20 05:45:41;;;;;;;56.53;33.28;;;10.30;92.70;;;;;;6279150;22;20075;-76
2023/02/20 05:48:07;;;;;;;52.85;32.63;;;10.20;92.70;;;;;;6307094;22;20022;-76
2023/02/20 05:50:32;;;;;;;82.53;33.58;;;10.30;92.90;;;;;;6307743;22;20012;-75
2023/02/20 05:52:58;;;;;;;62.17;31.02;;;10.30;92.60;;;;;;6308407;22;19995;-76
2023/02/20 05:55:24;;;;;;;49.15;32.85;;;10.30;92.80;;;;;;6309284;22;20336;-76
2023/02/20 05:57:49;;;;;;;53.38;33.58;;;10.30;92.80;;;;;;6309797;22;20075;-74
2023/02/20 06:00:15;;;;;;;52.15;33.25;;;10.30;93.00;;;;;;6310008;22;20060;-76
2023/02/20 06:02:41;;;;;;;48.63;33.08;;;10.30;92.70;;;;;;6309696;22;20007;-76
2023/02/20 06:05:07;;;;;;;118.28;34.40;;;10.30;92.90;;;;;;6308208;22;20011;-76
2023/02/20 06:07:34;;;;;;;168.60;35.08;;;10.30;92.70;;;;;;6307401;22;20003;-75
2023/02/20 06:10:00;;;;;;;55.10;33.65;;;10.30;93.20;;;;;;6306586;22;20011;-76
2023/02/20 06:12:25;;;;;;;49.50;33.25;;;10.30;93.20;;;;;;6306753;22;20079;-76
2023/02/20 06:14:51;;;;;;;64.82;33.85;;;10.30;93.30;;;;;;6306499;22;20393;-77
2023/02/20 06:17:17;;;;;;;51.65;32.90;;;10.20;93.10;;;;;;6306721;22;20437;-76
2023/02/20 06:19:42;;;;;;;105.10;34.13;;;10.20;93.20;;;;;;6306704;22;20000;-76
2023/02/20 06:22:08;;;;;;;65.13;33.60;;;10.20;93.20;;;;;;6306688;22;19996;-76
2023/02/20 06:24:34;;;;;;;55.85;33.28;;;10.20;93.20;;;;;;6306583;22;20069;-75
2023/02/20 06:27:00;;;;;;;74.93;33.13;;;10.20;93.30;;;;;;6279267;22;20314;-77
2023/02/20 06:29:26;;;;;;;49.80;32.65;;;10.20;93.20;;;;;;6278963;22;20019;-76
2023/02/20 06:31:52;;;;;;;60.28;32.35;;;10.20;93.50;;;;;;6278808;22;20007;-76
2023/02/20 06:34:18;;;;;;;78.53;33.33;;;10.20;93.10;;;;;;6306469;22;20396;-74
2023/02/20 06:36:44;;;;;;;49.83;31.13;;;10.20;93.00;;;;;;6306703;22;19996;-75
2023/02/20 06:39:12;;;;;;;47.90;31.08;;;10.20;93.30;;;;;;6306557;22;20003;-77
2023/02/20 06:41:37;;;;;;;47.42;31.92;;;10.30;93.40;;;;;;6306686;22;19999;-75
2023/02/20 06:44:04;;;;;;;54.00;33.22;;;10.40;93.10;;;;;;6306815;22;20015;-75
2023/02/20 06:46:30;;;;;;;56.42;31.70;;;10.50;93.10;;;;;;6306380;22;20321;-76
2023/02/20 06:48:57;;;;;;;48.08;30.95;;;10.40;92.70;;;;;;6305946;22;20007;-75
2023/02/20 06:51:31;;;;;;;48.35;31.15;;;10.40;93.10;;;;;;6306099;22;20043;-75
2023/02/20 06:53:57;;;;;;;49.42;30.77;;;10.50;93.20;;;;;;6324041;22;20500;-74
2023/02/20 06:56:29;;;;;;;51.30;32.10;;;10.50;93.00;;;;;;6309716;22;20019;-73
2023/02/20 06:58:55;;;;;;;44.67;29.90;;;10.60;93.00;;;;;;6306634;22;20007;-74
2023/02/20 07:01:25;;;;;;;51.20;31.10;;;10.70;92.80;;;;;;6306166;22;20053;-75
2023/02/20 07:03:53;;;;;;;48.92;31.10;;;10.80;93.00;;;;;;6306026;22;20011;-74
2023/02/20 07:06:19;;;;;;;48.53;31.35;;;10.80;92.60;;;;;;6306139;22;20093;-74
2023/02/20 07:08:44;;;;;;;47.13;30.60;;;10.90;92.60;;;;;;6306938;22;20003;-73
2023/02/20 07:11:11;;;;;;;49.10;31.35;;;11.00;92.50;;;;;;6280568;22;20058;-74
2023/02/20 07:13:37;;;;;;;46.17;30.15;;;11.10;92.50;;;;;;6280361;22;20086;-74
2023/02/20 07:16:03;;;;;;;40.60;29.23;;;11.10;92.30;;;;;;6308186;22;19995;-73
2023/02/20 07:18:28;;;;;;;40.97;29.33;;;11.10;92.10;;;;;;6308236;22;20445;-74
2023/02/20 07:20:54;;;;;;;40.83;28.30;;;11.20;92.20;;;;;;6307932;22;20070;-75
2023/02/20 07:23:20;;;;;;;43.40;28.70;;;11.30;92.10;;;;;;6307908;22;20341;-74
2023/02/20 07:25:46;;;;;;;37.22;26.58;;;11.40;91.80;;;;;;6307556;22;20009;-74
2023/02/20 07:28:13;;;;;;;40.40;26.92;;;11.50;91.70;;;;;;6308160;22;20003;-75
2023/02/20 07:30:39;;;;;;;50.78;30.27;;;11.60;91.60;;;;;;6308016;22;20508;-75
2023/02/20 07:33:04;;;;;;;43.00;26.88;;;11.60;91.40;;;;;;6307949;22;20045;-74
2023/02/20 07:35:30;;;;;;;39.30;26.63;;;11.70;91.40;;;;;;6307681;22;20310;-75
2023/02/20 07:37:56;;;;;;;39.53;26.60;;;11.80;91.10;;;;;;6308111;22;20469;-73
2023/02/20 07:40:21;;;;;;;37.45;27.55;;;11.80;91.30;;;;;;6307563;22;20010;-75
2023/02/20 07:42:47;;;;;;;37.65;25.90;;;11.80;91.00;;;;;;6307927;22;20310;-75
2023/02/20 07:45:13;;;;;;;38.85;27.13;;;12.00;91.00;;;;;;6307938;22;19999;-75
2023/02/20 07:47:39;;;;;;;36.25;24.85;;;12.20;90.90;;;;;;6307606;22;20413;-75
2023/02/20 07:50:05;;;;;;;32.92;24.33;;;12.30;90.70;;;;;;6308286;22;20007;-75
2023/02/20 07:52:31;;;;;;;31.52;22.17;;;12.40;90.40;;;;;;6308685;22;19999;-74
2023/02/20 07:54:56;;;;;;;35.60;24.15;;;12.40;90.00;;;;;;6308440;22;20129;-75
2023/02/20 07:57:22;;;;;;;34.58;24.40;;;12.40;89.80;;;;;;6308532;22;20369;-75
2023/02/20 07:59:48;;;;;;;31.77;23.25;;;12.50;90.00;;;;;;6307867;22;20009;-75
2023/02/20 08:02:13;;;;;;;31.73;23.25;;;12.60;89.90;;;;;;6308509;22;19999;-75
2023/02/20 08:04:39;;;;;;;33.33;23.27;;;12.70;89.00;;;;;;6281237;22;20082;-75
2023/02/20 08:07:07;;;;;;;33.10;24.15;;;12.80;89.20;;;;;;6308204;22;20049;-75
2023/02/20 08:09:33;;;;;;;33.65;23.30;;;12.70;88.30;;;;;;6308334;22;20049;-74
2023/02/20 08:11:59;;;;;;;36.35;23.70;;;12.80;89.20;;;;;;6312852;22;20079;-74
2023/02/20 08:14:27;;;;;;;34.00;24.40;;;12.80;88.80;;;;;;6320816;22;20003;-73
2023/02/20 08:16:53;;;;;;;34.92;23.67;;;12.90;88.50;;;;;;6308133;22;19999;-75
2023/02/20 08:19:18;;;;;;;39.40;24.15;;;12.90;88.30;;;;;;6307807;22;20034;-73
2023/02/20 08:21:44;;;;;;;43.55;24.98;;;12.90;88.30;;;;;;6307982;22;20448;-75
2023/02/20 08:24:10;;;;;;;41.72;24.15;;;12.90;88.00;;;;;;6307648;22;20413;-75
2023/02/20 08:26:45;;;;;;;41.30;23.65;;;12.80;87.80;;;;;;6307817;22;19999;-73
2023/02/20 08:29:12;;;;;;;36.45;24.23;;;12.80;87.40;;;;;;6307553;22;20011;-75
2023/02/20 08:31:37;;;;;;;33.20;23.77;;;12.90;88.00;;;;;;6307690;22;19999;-73
2023/02/20 08:34:03;;;;;;;33.58;22.80;;;12.90;87.70;;;;;;6307776;22;20391;-73
2023/02/20 08:36:29;;;;;;;35.28;24.10;;;12.90;87.30;;;;;;6307816;22;20448;-74
2023/02/20 08:38:56;;;;;;;30.90;22.08;;;12.90;87.40;;;;;;6307529;22;20006;-74
2023/02/20 08:41:22;;;;;;;32.28;21.35;;;12.90;87.30;;;;;;6307612;22;19999;-74
2023/02/20 08:43:48;;;;;;;25.70;21.23;;;12.90;87.40;;;;;;6307966;22;20070;-74
2023/02/20 08:46:14;;;;;;;28.65;21.52;;;12.90;87.10;;;;;;6308296;22;20322;-73
2023/02/20 08:48:40;;;;;;;30.77;22.02;;;12.90;87.20;;;;;;6331733;22;20003;-73
2023/02/20 08:51:06;;;;;;;26.63;20.45;;;12.90;87.00;;;;;;6307479;22;20046;-73
2023/02/20 08:53:33;;;;;;;29.33;20.52;;;13.00;87.10;;;;;;6310694;22;20433;-74
2023/02/20 08:55:59;;;;;;;25.75;20.15;;;13.00;86.90;;;;;;6280045;22;20352;-75
2023/02/20 08:58:25;;;;;;;25.27;18.50;;;13.10;86.40;;;;;;6307467;22;20003;-73
2023/02/20 09:00:51;;;;;;;29.90;18.30;;;13.10;86.00;;;;;;6307011;22;20062;-74
2023/02/20 09:03:17;;;;;;;23.58;16.25;;;13.20;85.90;;;;;;6307970;22;20298;-73
2023/02/20 09:05:43;;;;;;;26.00;17.67;;;13.30;85.50;;;;;;6307151;22;20002;-74
2023/02/20 09:08:09;;;;;;;23.83;17.65;;;13.30;85.10;;;;;;6307567;22;20429;-74
2023/02/20 09:10:35;;;;;;;24.70;18.35;;;13.40;84.80;;;;;;6306944;22;20082;-74
2023/02/20 09:13:01;;;;;;;25.77;18.25;;;13.40;84.50;;;;;;6306922;22;19995;-74
2023/02/20 09:15:27;;;;;;;24.05;18.83;;;13.50;84.10;;;;;;6307295;22;20008;-74
2023/02/20 09:17:53;;;;;;;27.13;18.73;;;13.50;84.00;;;;;;6307022;22;19995;-74
2023/02/20 09:20:21;;;;;;;26.08;17.95;;;13.60;83.80;;;;;;6307145;22;20053;-73
2023/02/20 09:22:49;;;;;;;31.45;18.35;;;13.70;83.80;;;;;;6307092;22;20411;-73
2023/02/20 09:25:16;;;;;;;27.65;18.73;;;13.70;83.80;;;;;;6307353;22;20004;-75
2023/02/20 09:27:41;;;;;;;27.23;18.30;;;13.70;83.60;;;;;;6307079;22;20010;-74
2023/02/20 09:30:08;;;;;;;28.65;18.15;;;13.80;83.30;;;;;;6306627;22;20409;-74
2023/02/20 09:32:34;;;;;;;24.95;18.10;;;13.90;83.50;;;;;;6320326;22;20065;-75
2023/02/20 09:34:59;;;;;;;24.73;17.77;;;13.90;83.40;;;;;;6310642;22;20000;-74
2023/02/20 09:37:25;;;;;;;22.88;17.95;;;14.00;83.30;;;;;;6307262;22;20066;-73
2023/02/20 09:39:51;;;;;;;23.65;18.02;;;14.10;83.10;;;;;;6306829;22;20017;-73
2023/02/20 09:42:38;;;;;;;23.80;19.15;;;14.20;83.10;;;;;;6306785;22;20031;-75
2023/02/20 09:45:16;;;;;;;29.58;19.88;;;14.30;83.00;;;;;;6279380;22;20018;-73
2023/02/20 09:48:30;;;;;;;26.83;20.48;;;14.30;82.70;;;;;;6306877;22;20000;-73
2023/02/20 09:51:04;;;;;;;27.27;18.85;;;14.40;82.70;;;;;;6306539;22;20022;-74
2023/02/20 09:53:36;;;;;;;25.20;18.80;;;14.50;82.10;;;;;;6306523;22;20002;-74
2023/02/20 09:56:05;;;;;;;25.80;18.52;;;14.50;82.20;;;;;;6306926;22;20014;-73
2023/02/20 09:59:01;;;;;;;28.65;19.00;;;14.60;81.50;;;;;;6307007;22;20071;-74
2023/02/20 10:01:27;;;;;;;28.30;19.88;;;14.70;82.10;;;;;;6307085;22;20011;-74
2023/02/20 10:04:25;;;;;;;27.45;20.45;;;14.70;81.10;;;;;;6306799;22;20000;-73
2023/02/20 10:06:59;;;;;;;26.58;19.38;;;14.80;81.80;;;;;;6286499;22;20008;-74
2023/02/20 10:09:24;;;;;;;;;;;14.90;80.90;;;;;;6307263;22;20011;-74
2023/02/20 10:12:10;;;;;;;24.15;16.98;;;14.90;80.30;;;;;;6307066;22;20319;-74
2023/02/20 10:15:19;;;;;;;24.13;17.70;;;15.00;81.00;;;;;;6306768;22;20066;-74
2023/02/20 10:17:59;;;;;;;28.50;18.27;;;15.10;81.00;;;;;;6307053;22;20003;-74
2023/02/20 10:20:32;;;;;;;22.40;16.45;;;15.20;80.90;;;;;;6306841;22;20034;-73
2023/02/20 10:22:58;;;;;;;26.08;18.95;;;15.20;80.70;;;;;;6307089;22;20433;-74
2023/02/20 10:25:30;;;;;;;26.17;17.85;;;15.30;80.40;;;;;;6306628;22;20065;-75
2023/02/20 10:28:15;;;;;;;29.23;18.33;;;15.30;79.80;;;;;;6307187;22;20333;-74
2023/02/20 10:30:57;;;;;;;26.05;17.35;;;15.50;79.80;;;;;;6306976;22;20007;-73
2023/02/20 10:33:28;;;;;;;24.13;15.93;;;15.60;79.80;;;;;;6306550;22;20011;-74
2023/02/20 10:36:03;;;;;;;25.02;17.05;;;15.70;79.10;;;;;;6306643;22;20329;-74
2023/02/20 10:38:35;;;;;;;27.40;17.55;;;15.70;78.70;;;;;;6306556;22;20007;-73
2023/02/20 10:41:04;;;;;;;24.80;16.52;;;15.80;78.20;;;;;;6306846;22;20051;-73
2023/02/20 10:43:39;;;;;;;22.88;15.75;;;15.90;78.30;;;;;;6308435;22;20007;-74
2023/02/20 10:46:30;;;;;;;29.63;15.25;;;16.00;78.20;;;;;;6308829;22;19999;-74
2023/02/20 10:49:01;;;;;;;18.98;12.27;;;16.10;77.70;;;;;;6309206;22;20026;-73
2023/02/20 10:51:32;;;;;;;18.15;13.05;;;16.10;77.10;;;;;;6325269;22;19999;-72
2023/02/20 10:54:16;;;;;;;19.30;12.50;;;16.20;76.20;;;;;;6309673;22;19995;-72
2023/02/20 10:56:48;;;;;;;25.13;14.30;;;16.30;75.60;;;;;;6309244;22;20433;-73
2023/02/20 10:59:27;;;;;;;23.92;14.98;;;16.40;75.30;;;;;;6308472;22;19999;-73
2023/02/20 11:01:57;;;;;;;23.42;15.80;;;16.50;75.50;;;;;;6280995;22;20013;-73
2023/02/20 11:04:36;;;;;;;26.73;16.42;;;16.60;75.30;;;;;;6308142;22;20006;-73
2023/02/20 11:07:10;;;;;;;24.33;16.42;;;16.60;74.60;;;;;;6308420;22;20004;-73
2023/02/20 11:09:36;;;;;;;31.55;16.20;;;16.60;74.70;;;;;;6309298;22;20076;-74
2023/02/20 11:12:02;;;;;;;22.27;15.25;;;16.60;74.30;;;;;;6308905;22;20000;-74
2023/02/20 11:14:42;;;;;;;21.55;14.48;;;16.60;73.90;;;;;;6308731;22;20049;-74
2023/02/20 11:17:13;;;;;;;22.20;13.63;;;16.60;73.30;;;;;;6308162;22;20437;-74
2023/02/20 11:19:46;;;;;;;23.13;14.90;;;16.70;73.20;;;;;;6308264;22;20008;-73
2023/02/20 11:22:13;;;;;;;20.45;13.52;;;16.70;72.40;;;;;;6308297;22;20006;-74
2023/02/20 11:24:41;;;;;;;21.48;13.27;;;16.60;72.30;;;;;;6281000;22;20082;-72
2023/02/20 11:27:20;;;;;;;21.45;14.52;;;16.60;72.70;;;;;;6308202;22;19999;-74
2023/02/20 11:29:58;;;;;;;24.38;15.38;;;16.50;72.90;;;;;;6305015;22;20023;-74
2023/02/20 11:32:26;;;;;;;22.05;14.25;;;16.50;72.60;;;;;;6308454;22;20002;-73
2023/02/20 11:35:14;;;;;;;24.50;13.57;;;16.50;72.50;;;;;;6309320;22;20422;-74
2023/02/20 11:37:40;;;;;;;21.70;14.50;;;16.50;72.30;;;;;;6309446;22;20447;-74
2023/02/20 11:40:30;;;;;;;26.30;15.10;;;16.70;71.90;;;;;;6293322;22;19995;-73
2023/02/20 11:43:08;;;;;;;22.38;14.55;;;16.90;71.80;;;;;;6333577;22;20010;-73
2023/02/20 11:45:33;;;;;;;22.23;13.65;;;17.00;71.30;;;;;;6324660;22;19999;-73
2023/02/20 11:48:17;;;;;;;20.23;13.60;;;17.10;70.30;;;;;;6309132;22;20011;-74
2023/02/20 11:50:47;;;;;;;24.13;14.50;;;17.40;70.60;;;;;;6281617;22;20015;-74
2023/02/20 11:53:24;;;;;;;20.40;14.15;;;17.50;69.30;;;;;;6308461;22;20082;-74
2023/02/20 11:56:11;;;;;;;19.98;13.25;;;17.60;70.20;;;;;;6280959;22;20470;-73
2023/02/20 11:58:38;;;;;;;18.98;14.20;;;17.70;68.80;;;;;;6307791;22;20006;-73
2023/02/20 12:01:05;;;;;;;23.52;15.00;;;17.80;68.00;;;;;;6310916;22;20002;-73
2023/02/20 12:03:36;;;;;;;21.20;13.60;;;17.80;67.90;;;;;;6310734;22;19999;-74
2023/02/20 12:06:27;;;;;;;21.90;13.27;;;17.80;68.20;;;;;;6308457;22;20322;-74
2023/02/20 12:08:55;;;;;;;19.10;13.18;;;17.80;68.10;;;;;;6307788;22;20033;-74
2023/02/20 12:11:24;;;;;;;19.95;13.77;;;17.90;67.20;;;;;;6307599;22;20410;-75
2023/02/20 12:13:52;;;;;;;20.42;13.85;;;18.00;66.80;;;;;;6308029;22;19999;-74
2023/02/20 12:16:31;;;;;;;20.80;13.30;;;18.10;66.70;;;;;;6307805;22;19999;-73
2023/02/20 12:19:00;;;;;;;19.52;13.15;;;18.20;66.80;;;;;;6308229;22;20013;-73
2023/02/20 12:22:00;;;;;;;17.10;11.85;;;18.20;67.40;;;;;;6307471;22;20003;-73
2023/02/20 12:24:25;;;;;;;17.30;12.80;;;18.10;67.10;;;;;;6307701;22;20078;-74
2023/02/20 12:27:00;;;;;;;26.55;13.88;;;18.00;66.70;;;;;;6307500;22;20031;-73
2023/02/20 12:29:55;;;;;;;18.70;11.90;;;18.00;66.60;;;;;;6307313;22;20011;-75
2023/02/20 12:32:29;;;;;;;21.77;12.38;;;17.80;66.10;;;;;;6306454;22;20011;-74
2023/02/20 12:35:03;;;;;;;21.60;11.95;;;17.70;66.40;;;;;;6307608;22;20009;-74
2023/02/20 12:37:51;;;;;;;16.17;12.02;;;17.90;66.30;;;;;;6307722;22;20011;-74
2023/02/20 12:40:25;;;;;;;15.75;11.18;;;18.00;65.70;;;;;;6307324;22;20323;-73
2023/02/20 12:43:17;;;;;;;18.80;11.90;;;18.30;65.30;;;;;;6307587;22;20333;-74
2023/02/20 12:46:04;;;;;;;17.25;12.57;;;18.40;64.90;;;;;;6307479;22;19999;-75
2023/02/20 12:48:51;;;;;;;17.45;10.85;;;18.60;64.40;;;;;;6307602;22;20034;-74
2023/02/20 12:51:33;;;;;;;18.27;11.75;;;18.60;64.20;;;;;;6307815;22;20010;-74
2023/02/20 12:54:23;;;;;;;17.90;11.98;;;18.60;63.80;;;;;;6307784;22;20425;-73
2023/02/20 12:57:04;;;;;;;18.55;11.70;;;18.70;63.80;;;;;;6279650;22;20267;-75
2023/02/20 12:59:41;;;;;;;26.27;13.63;;;18.80;63.90;;;;;;6306937;22;20460;-74
2023/02/20 13:02:32;;;;;;;18.27;11.13;;;18.70;63.60;;;;;;6279746;22;20014;-75
2023/02/20 13:05:00;;;;;;;19.48;11.60;;;18.50;63.30;;;;;;6307245;22;20003;-74
2023/02/20 13:07:49;;;;;;;16.17;11.63;;;18.20;64.30;;;;;;6307414;22;19996;-75
2023/02/20 13:10:16;;;;;;;16.48;11.65;;;18.00;63.80;;;;;;6307238;22;20069;-73